Works best with JavaScript enabled!Works best in modern browsers!powered by h5ai
NameLast modifiedSize
folder-parentParent Directory
fileAn Introduction to Biomechanics - Jay D. Humphrey, Sherry L. ORourke, 2nd ed. 2015 - 978-1-4939-2623-7.epub2020-05-16 22:0211011 KB
fileAn Introduction to Biomechanics - Jay D. Humphrey, Sherry L. ORourke, 2nd ed. 2015 - 978-1-4939-2623-7.pdf2020-05-16 22:028094 KB
fileApplied Bioinformatics - Paul M. Selzer, Richard J. Marhfer, Oliver Koch, 2nd ed. 2018 - 978-3-319-68301-0.epub2020-05-16 23:284481 KB
fileApplied Bioinformatics - Paul M. Selzer, Richard J. Marhfer, Oliver Koch, 2nd ed. 2018 - 978-3-319-68301-0.pdf2020-05-16 23:277423 KB
fileBioinformatics for Evolutionary Biologists - Bernhard Haubold, Angelika Brsch-Haubold, 1st ed. 2017 - 978-3-319-67395-0.epub2020-05-16 23:207118 KB
fileBioinformatics for Evolutionary Biologists - Bernhard Haubold, Angelika Brsch-Haubold, 1st ed. 2017 - 978-3-319-67395-0.pdf2020-05-16 23:202517 KB
fileClinical Data Analysis on a Pocket Calculator - Ton J. Cleophas, Aeilko H. Zwinderman, 2nd ed. 2016 - 978-3-319-27104-0.epub2020-05-16 21:029332 KB
fileClinical Data Analysis on a Pocket Calculator - Ton J. Cleophas, Aeilko H. Zwinderman, 2nd ed. 2016 - 978-3-319-27104-0.pdf2020-05-16 21:028599 KB
fileDevelopmental Neurobiology - Mahendra S. Rao, Marcus Jacobson, 4th ed. 2005 - 978-0-387-28117-9.pdf2020-05-15 17:1010241 KB
fileENZYMES- Catalysis, Kinetics and Mechanisms - N.S. Punekar, 1st ed. 2018 - 978-981-13-0785-0.epub2020-05-17 00:1527166 KB
fileENZYMES- Catalysis, Kinetics and Mechanisms - N.S. Punekar, 1st ed. 2018 - 978-981-13-0785-0.pdf2020-05-17 00:136983 KB
fileEpidemiological Research- Terms and Concepts - O. S. Miettinen, 2011 - 978-94-007-1171-6.epub2020-05-16 20:55396 KB
fileEpidemiological Research- Terms and Concepts - O. S. Miettinen, 2011 - 978-94-007-1171-6.pdf2020-05-16 20:551054 KB
fileEssentials of Cerebellum and Cerebellar Disorders - Donna L. Gruol et al., 1st ed. 2016 - 978-3-319-24551-5.epub2020-05-16 21:097791 KB
fileEssentials of Cerebellum and Cerebellar Disorders - Donna L. Gruol et al., 1st ed. 2016 - 978-3-319-24551-5.pdf2020-05-16 21:0912413 KB
fileFood Fraud Prevention - John W. Spink, 1st ed. 2019 - 978-1-4939-9621-6.epub2020-05-17 01:4339433 KB
fileFood Fraud Prevention - John W. Spink, 1st ed. 2019 - 978-1-4939-9621-6.pdf2020-05-17 01:438135 KB
fileFundamentals of Biomechanics - Duane Knudson, 2nd ed. 2007 - 978-0-387-49312-1.pdf2020-05-15 17:234266 KB
fileFundamentals of Biomechanics - Nihat zkaya, Dawn Leger, David Goldsheyder, Margareta Nordin, 4th ed. 2017 - 978-3-319-44738-4.epub2020-05-15 17:5016579 KB
fileFundamentals of Biomechanics - Nihat zkaya, Dawn Leger, David Goldsheyder, Margareta Nordin, 4th ed. 2017 - 978-3-319-44738-4.pdf2020-05-15 17:505451 KB
fileHandbook of Cardiac Anatomy, Physiology, and Devices - Paul A. Iaizzo, 3rd ed. 2015 - 978-3-319-19464-6.epub2020-05-16 21:2546608 KB
fileHandbook of Cardiac Anatomy, Physiology, and Devices - Paul A. Iaizzo, 3rd ed. 2015 - 978-3-319-19464-6.pdf2020-05-16 21:2357362 KB
fileHuman Chromosomes - Orlando J. Miller, Eeva Therman, 4th ed. 2001 - 978-1-4613-0139-4.pdf2020-05-15 18:1142685 KB
fileIntegrative Human Biochemistry - Andrea T. da Poian, Miguel A. R. B. Castanho, 1st ed. 2015 - 978-1-4939-3058-6.epub2020-05-15 17:4217776 KB
fileIntegrative Human Biochemistry - Andrea T. da Poian, Miguel A. R. B. Castanho, 1st ed. 2015 - 978-1-4939-3058-6.pdf2020-05-15 17:4121161 KB
fileLearning Landscape Ecology - Sarah E. Gergel, Monica G. Turner, 2nd ed. 2017 - 978-1-4939-6374-4.epub2020-05-15 18:324968 KB
fileLearning Landscape Ecology - Sarah E. Gergel, Monica G. Turner, 2nd ed. 2017 - 978-1-4939-6374-4.pdf2020-05-15 18:328225 KB
fileLessons on Synthetic Bioarchitectures - Eva-Kathrin Ehmoser-Sinner, Cherng-Wen Darren Tan, 1st ed. 2018 - 978-3-319-73123-0.epub2020-05-16 23:222554 KB
fileLessons on Synthetic Bioarchitectures - Eva-Kathrin Ehmoser-Sinner, Cherng-Wen Darren Tan, 1st ed. 2018 - 978-3-319-73123-0.pdf2020-05-16 23:223170 KB
fileMachine Learning in Medicine - a Complete Overview - Ton J. Cleophas, Aeilko H. Zwinderman, 2015 - 978-3-319-15195-3.epub2020-05-16 21:556226 KB
fileMachine Learning in Medicine - a Complete Overview - Ton J. Cleophas, Aeilko H. Zwinderman, 2015 - 978-3-319-15195-3.pdf2020-05-16 21:548472 KB
fileMetabolism of Human Diseases - Eckhard Lammert, Martin Zeeb, 2014 - 978-3-7091-0715-7.epub2020-05-15 17:397292 KB
fileMetabolism of Human Diseases - Eckhard Lammert, Martin Zeeb, 2014 - 978-3-7091-0715-7.pdf2020-05-15 17:397449 KB
filePharmaceutical Biotechnology - Daan J. A. Crommelin, Robert D. Sindelar, Bernd Meibohm, 4th ed. 2013 - 978-1-4614-6486-0.epub2020-05-16 21:5711583 KB
filePharmaceutical Biotechnology - Daan J. A. Crommelin, Robert D. Sindelar, Bernd Meibohm, 4th ed. 2013 - 978-1-4614-6486-0.pdf2020-05-16 21:5795137 KB
filePhylogenomics - Christoph Bleidorn, 1st ed. 2017 - 978-3-319-54064-1.epub2020-05-15 18:124977 KB
filePhylogenomics - Christoph Bleidorn, 1st ed. 2017 - 978-3-319-54064-1.pdf2020-05-15 18:126081 KB
filePlant Ecology - Ernst-Detlef Schulze et al., 2nd ed. 2019 - 978-3-662-56233-8.epub2020-05-17 01:51406631 KB
filePlant Ecology - Ernst-Detlef Schulze et al., 2nd ed. 2019 - 978-3-662-56233-8.pdf2020-05-17 01:4377459 KB
filePlant Physiological Ecology - Hans Lambers, F Stuart Chapin III, Thijs L. Pons, 2nd ed. 2008 - 978-0-387-78341-3.epub2020-05-15 17:2819686 KB
filePlant Physiological Ecology - Hans Lambers, F Stuart Chapin III, Thijs L. Pons, 2nd ed. 2008 - 978-0-387-78341-3.pdf2020-05-15 17:2717030 KB
filePlant Physiology, Development and Metabolism - Satish C Bhatla, Manju A. Lal, 1st ed. 2018 - 978-981-13-2023-1.epub2020-05-17 00:30256876 KB
filePlant Physiology, Development and Metabolism - Satish C Bhatla, Manju A. Lal, 1st ed. 2018 - 978-981-13-2023-1.pdf2020-05-17 00:2439508 KB
filePrinciples of Terrestrial Ecosystem Ecology - F Stuart Chapin III, Pamela A. Matson, Peter Vitousek, 2nd ed. 2012 - 978-1-4419-9504-9.epub2020-05-15 18:238200 KB
filePrinciples of Terrestrial Ecosystem Ecology - F Stuart Chapin III, Pamela A. Matson, Peter Vitousek, 2nd ed. 2012 - 978-1-4419-9504-9.pdf2020-05-15 18:2312924 KB
fileSPSS for Starters and 2nd Levelers - Ton J. Cleophas, Aeilko H. Zwinderman, 2nd ed. 2016 - 978-3-319-20600-4.epub2020-05-16 21:402916 KB
fileSPSS for Starters and 2nd Levelers - Ton J. Cleophas, Aeilko H. Zwinderman, 2nd ed. 2016 - 978-3-319-20600-4.pdf2020-05-16 21:404180 KB
fileStatistical Analysis of Clinical Data on a Pocket Calculator - Ton J. Cleophas, Aeilko H. Zwinderman, 2011 - 978-94-007-1211-9.epub2020-05-16 21:02901 KB
fileStatistical Analysis of Clinical Data on a Pocket Calculator - Ton J. Cleophas, Aeilko H. Zwinderman, 2011 - 978-94-007-1211-9.pdf2020-05-16 21:022816 KB
fileThe Gastrointestinal System - Po Sing Leung, 2014 - 978-94-017-8771-0.epub2020-05-16 21:298160 KB
fileThe Gastrointestinal System - Po Sing Leung, 2014 - 978-94-017-8771-0.pdf2020-05-16 21:2810210 KB
fileThe Joy of Science - Richard A. Lockshin, 2007 - 978-1-4020-6099-1.pdf2020-05-15 17:3113419 KB